Terminal Aerodrome Forecast
Issued by NWS

Home | Current Version | Previous Version | Graphics & Text | Print | Product List | Glossary On
Versions: 1 2 3 4 5 6 7 8 9 10 11 12 13 14 15 16 17 18 19 20 21 22 23 24 25 26 27 28 29 30 31 32 33 34 35
000
FTUS45 KGGW 262300
TAFGDV
TAF
KGDV 262326Z 2700/2724 01011KT P6SM SCT140
     FM270300 04007KT P6SM SCT130
     FM270600 06009KT P6SM SCT100
     FM271200 05007KT P6SM FEW150
     FM272100 VRB04KT P6SM VCTS BKN060CB
      AMD LTD TO CLD VIS AND WIND=

USA.gov is the U.S. government's official web portal to all federal, state and local government web resources and services.